Time;durP1;ratioP1;P1;durP2;ratioP2;P2;SDS_P1;SDS_P2;PMS_P1;PMS_P2;Temp;Humidity;BMP_temperature;BMP_pressure;BME280_temperature;BME280_humidity;BME280_pressure;Samples;Min_cycle;Max_cycle;Signal;HPM_P1;HPM_P2
2023/06/29 00:01:04;;;;;;;37.97;26.25;;;18.60;99.90;;;;;;5019955;28;20098;-79
2023/06/29 00:03:34;;;;;;;41.53;27.30;;;18.60;99.90;;;;;;5032680;28;20666;-80
2023/06/29 00:06:01;;;;;;;35.67;24.98;;;18.60;99.90;;;;;;5052847;28;20123;-79
2023/06/29 00:08:29;;;;;;;37.70;25.23;;;18.60;99.90;;;;;;5067356;28;20323;-80
2023/06/29 00:10:55;;;;;;;37.67;25.33;;;18.60;99.90;;;;;;5040968;28;20552;-79
2023/06/29 00:13:22;;;;;;;39.25;26.58;;;18.60;99.90;;;;;;5035673;28;20048;-79
2023/06/29 00:15:49;;;;;;;36.90;26.75;;;18.60;99.90;;;;;;5050043;28;20045;-79
2023/06/29 00:18:16;;;;;;;39.70;26.80;;;18.60;99.90;;;;;;5033613;28;20448;-79
2023/06/29 00:20:42;;;;;;;39.58;25.88;;;18.60;99.90;;;;;;5035287;28;20409;-79
2023/06/29 00:23:09;;;;;;;35.75;25.42;;;18.60;99.90;;;;;;5049650;28;20090;-79
2023/06/29 00:25:35;;;;;;;44.10;27.45;;;18.50;99.90;;;;;;5029510;28;20049;-79
2023/06/29 00:28:01;;;;;;;39.25;26.80;;;18.60;99.90;;;;;;5033199;28;20035;-79
2023/06/29 00:30:27;;;;;;;40.83;26.95;;;18.50;99.90;;;;;;5043983;28;20527;-79
2023/06/29 00:32:55;;;;;;;34.38;25.65;;;18.60;99.90;;;;;;5027543;28;20060;-79
2023/06/29 00:35:21;;;;;;;36.70;26.52;;;18.60;99.90;;;;;;5021278;28;20506;-79
2023/06/29 00:37:47;;;;;;;39.15;26.67;;;18.60;99.90;;;;;;5050951;28;20039;-79
2023/06/29 00:40:13;;;;;;;39.88;27.65;;;18.60;99.90;;;;;;5036461;28;20191;-79
2023/06/29 00:42:38;;;;;;;40.00;26.40;;;18.60;99.90;;;;;;5068514;28;20201;-79
2023/06/29 00:45:05;;;;;;;43.03;26.85;;;18.60;99.90;;;;;;5021725;28;20045;-79
2023/06/29 00:47:34;;;;;;;41.08;25.52;;;18.60;99.90;;;;;;5020589;28;20056;-80
2023/06/29 00:50:03;;;;;;;36.78;26.13;;;18.50;99.90;;;;;;5017463;28;20044;-79
2023/06/29 00:52:29;;;;;;;37.50;26.30;;;18.60;99.90;;;;;;5023391;28;20044;-79
2023/06/29 00:54:55;;;;;;;39.03;26.58;;;18.50;99.90;;;;;;5030780;28;20040;-79
2023/06/29 00:57:21;;;;;;;40.10;27.67;;;18.50;99.90;;;;;;5014371;28;20040;-79
2023/06/29 00:59:47;;;;;;;40.42;26.55;;;18.50;99.90;;;;;;5036877;28;20541;-79
2023/06/29 01:02:15;;;;;;;42.50;27.40;;;18.60;99.90;;;;;;5035406;28;20079;-79
2023/06/29 01:04:45;;;;;;;40.80;26.10;;;18.50;99.90;;;;;;5032261;28;20451;-79
2023/06/29 01:07:22;;;;;;;37.90;26.75;;;18.50;99.90;;;;;;5030166;28;20071;-79
2023/06/29 01:09:50;;;;;;;39.05;26.67;;;18.50;99.90;;;;;;5035112;28;20388;-79
2023/06/29 01:12:16;;;;;;;42.47;26.77;;;18.50;99.90;;;;;;5014353;28;20045;-79
2023/06/29 01:14:44;;;;;;;40.33;26.83;;;18.50;99.90;;;;;;5029771;28;20430;-79
2023/06/29 01:17:15;;;;;;;36.30;25.20;;;18.50;99.90;;;;;;5035790;28;20416;-79
2023/06/29 01:19:45;;;;;;;38.00;25.58;;;18.50;99.90;;;;;;5027980;28;20098;-79
2023/06/29 01:22:14;;;;;;;36.88;26.40;;;18.50;99.90;;;;;;5021997;28;20079;-79
2023/06/29 01:24:41;;;;;;;39.47;27.55;;;18.50;99.90;;;;;;5020671;28;20106;-79
2023/06/29 01:27:13;;;;;;;40.00;27.25;;;18.50;99.90;;;;;;5031652;28;20036;-80
2023/06/29 01:29:39;;;;;;;37.05;24.70;;;18.50;99.90;;;;;;5015905;28;20067;-79
2023/06/29 01:32:07;;;;;;;37.50;26.38;;;18.50;99.90;;;;;;5036260;28;20071;-79
2023/06/29 01:34:34;;;;;;;35.63;26.02;;;18.50;99.90;;;;;;5020607;28;20040;-79
2023/06/29 01:37:13;;;;;;;39.65;26.27;;;18.50;99.90;;;;;;5028660;28;20526;-79
2023/06/29 01:40:03;;;;;;;41.60;26.60;;;18.50;99.90;;;;;;5030540;28;20052;-79
2023/06/29 01:42:33;;;;;;;39.05;26.63;;;18.50;99.90;;;;;;5034541;28;20091;-79
2023/06/29 01:45:00;;;;;;;38.22;25.90;;;18.40;99.90;;;;;;5038107;28;20053;-80
2023/06/29 01:47:28;;;;;;;42.50;26.92;;;18.40;99.90;;;;;;5047477;28;20443;-79
2023/06/29 01:49:54;;;;;;;39.47;26.70;;;18.40;99.90;;;;;;5021097;28;20341;-79
2023/06/29 01:52:19;;;;;;;40.72;28.48;;;18.40;99.90;;;;;;5037035;28;20228;-80
2023/06/29 01:54:45;;;;;;;39.30;27.20;;;18.40;99.90;;;;;;5037956;28;20507;-79
2023/06/29 01:57:12;;;;;;;39.97;27.13;;;18.40;99.90;;;;;;5051612;28;20048;-79
2023/06/29 01:59:38;;;;;;;39.08;26.95;;;18.40;99.90;;;;;;5021011;28;20092;-79
2023/06/29 02:02:05;;;;;;;44.30;28.42;;;18.40;99.90;;;;;;5038334;28;20048;-79
2023/06/29 02:04:30;;;;;;;43.55;28.52;;;18.40;99.90;;;;;;5038024;28;20106;-79
2023/06/29 02:06:56;;;;;;;44.70;27.45;;;18.40;99.90;;;;;;5041155;28;20048;-80
2023/06/29 02:09:22;;;;;;;43.70;28.40;;;18.40;99.90;;;;;;5054474;28;20086;-79
2023/06/29 02:11:47;;;;;;;35.38;26.23;;;18.40;99.90;;;;;;5035468;28;20105;-79
2023/06/29 02:14:13;;;;;;;36.35;27.30;;;18.30;99.90;;;;;;5023647;28;20094;-79
2023/06/29 02:16:39;;;;;;;43.22;28.20;;;18.40;99.90;;;;;;5038339;28;20052;-80
2023/06/29 02:19:05;;;;;;;42.30;28.10;;;18.40;99.90;;;;;;5033012;28;20448;-79
2023/06/29 02:21:30;;;;;;;40.92;28.63;;;18.40;99.90;;;;;;5040349;28;20222;-79
2023/06/29 02:23:56;;;;;;;43.55;28.35;;;18.40;99.90;;;;;;5036509;28;20186;-79
2023/06/29 02:26:25;;;;;;;39.92;28.27;;;18.40;99.90;;;;;;5029543;28;20045;-80
2023/06/29 02:28:51;;;;;;;42.75;26.85;;;18.40;99.90;;;;;;5018008;28;20041;-79
2023/06/29 02:31:20;;;;;;;39.72;27.33;;;18.40;99.90;;;;;;5033573;28;20187;-79
2023/06/29 02:33:45;;;;;;;35.95;25.95;;;18.40;99.90;;;;;;5031831;28;20064;-79
2023/06/29 02:36:11;;;;;;;39.30;25.95;;;18.30;99.90;;;;;;5024546;28;20161;-79
2023/06/29 02:38:37;;;;;;;32.95;25.50;;;18.30;99.90;;;;;;5020791;28;20116;-79
2023/06/29 02:41:03;;;;;;;38.72;26.75;;;18.30;99.90;;;;;;5022413;28;20447;-79
2023/06/29 02:43:29;;;;;;;40.38;25.95;;;18.30;99.90;;;;;;5038867;28;20044;-79
2023/06/29 02:45:54;;;;;;;41.22;26.75;;;18.30;99.90;;;;;;5022906;28;20106;-79
2023/06/29 02:48:20;;;;;;;37.85;25.80;;;18.30;99.90;;;;;;5019038;28;20046;-79
2023/06/29 02:50:48;;;;;;;38.20;27.77;;;18.30;99.90;;;;;;5034982;28;20033;-79
2023/06/29 02:53:16;;;;;;;39.92;26.67;;;18.30;99.90;;;;;;5050008;28;20036;-79
2023/06/29 02:55:42;;;;;;;39.53;27.27;;;18.30;99.90;;;;;;5055977;28;20080;-79
2023/06/29 02:58:07;;;;;;;43.15;26.80;;;18.30;99.90;;;;;;5025596;28;20132;-79
2023/06/29 03:00:33;;;;;;;38.83;26.63;;;18.30;99.90;;;;;;5055529;28;20396;-79
2023/06/29 03:02:58;;;;;;;44.67;27.55;;;18.20;99.90;;;;;;5040819;28;20037;-79
2023/06/29 03:05:24;;;;;;;40.65;26.80;;;18.30;99.90;;;;;;5025952;28;20040;-79
2023/06/29 03:07:50;;;;;;;39.42;26.90;;;18.20;99.90;;;;;;5036431;28;20039;-79
2023/06/29 03:10:15;;;;;;;38.22;26.80;;;18.30;99.90;;;;;;5054712;28;20038;-79
2023/06/29 03:12:41;;;;;;;39.42;26.55;;;18.30;99.90;;;;;;5033691;28;20041;-79
2023/06/29 03:15:08;;;;;;;38.05;26.45;;;18.30;99.90;;;;;;5021148;28;20045;-79
2023/06/29 03:17:33;;;;;;;38.38;26.40;;;18.30;99.90;;;;;;5036863;28;20048;-79
2023/06/29 03:19:59;;;;;;;36.60;25.55;;;18.30;99.90;;;;;;5037483;28;20530;-79
2023/06/29 03:22:26;;;;;;;39.58;26.85;;;18.30;99.90;;;;;;5040011;28;20388;-79
2023/06/29 03:24:52;;;;;;;38.85;26.38;;;18.30;99.90;;;;;;5033404;28;20559;-80
2023/06/29 03:27:18;;;;;;;39.20;26.10;;;18.30;99.90;;;;;;5032250;28;20041;-79
2023/06/29 03:29:44;;;;;;;41.00;25.58;;;18.30;99.90;;;;;;5032358;28;20483;-79
2023/06/29 03:32:09;;;;;;;38.72;26.02;;;18.30;99.90;;;;;;5020301;28;20055;-79
2023/06/29 03:34:35;;;;;;;38.08;25.73;;;18.30;99.90;;;;;;5033342;28;20179;-79
2023/06/29 03:37:00;;;;;;;35.30;25.92;;;18.30;99.90;;;;;;5033655;28;20040;-79
2023/06/29 03:39:26;;;;;;;36.08;25.63;;;18.30;99.90;;;;;;5019058;28;20048;-80
2023/06/29 03:41:52;;;;;;;40.88;26.83;;;18.40;99.90;;;;;;5035956;28;20053;-79
2023/06/29 03:44:17;;;;;;;35.80;25.38;;;18.30;99.90;;;;;;5050369;28;20082;-79
2023/06/29 03:46:43;;;;;;;35.55;24.63;;;18.40;99.90;;;;;;5022782;28;20392;-79
2023/06/29 03:49:11;;;;;;;35.30;25.38;;;18.40;99.90;;;;;;5017376;28;20116;-79
2023/06/29 03:51:37;;;;;;;42.35;23.17;;;18.50;99.90;;;;;;5018163;28;20037;-80
2023/06/29 03:54:02;;;;;;;40.92;26.10;;;18.40;99.90;;;;;;5028446;28;20041;-79
2023/06/29 03:56:28;;;;;;;41.30;25.27;;;18.50;99.90;;;;;;5037662;28;20118;-79
2023/06/29 03:58:54;;;;;;;36.13;25.08;;;18.50;99.90;;;;;;5036867;28;20349;-79
2023/06/29 04:01:19;;;;;;;34.35;24.52;;;18.50;99.90;;;;;;5033148;28;20040;-79
2023/06/29 04:03:45;;;;;;;35.90;25.13;;;18.60;99.90;;;;;;5036834;28;20048;-79
2023/06/29 04:06:11;;;;;;;33.08;23.95;;;18.60;99.90;;;;;;5021904;28;20029;-79
2023/06/29 04:08:39;;;;;;;34.20;23.25;;;18.60;99.90;;;;;;5035307;28;20044;-79
2023/06/29 04:11:05;;;;;;;33.70;23.67;;;18.60;99.90;;;;;;5036083;28;20379;-79
2023/06/29 04:13:30;;;;;;;35.78;24.17;;;18.70;99.90;;;;;;5023178;28;20364;-79
2023/06/29 04:15:56;;;;;;;33.25;22.95;;;18.70;99.90;;;;;;5033900;28;20148;-79
2023/06/29 04:18:22;;;;;;;31.02;22.70;;;18.70;99.90;;;;;;5022908;28;20056;-79
2023/06/29 04:20:48;;;;;;;31.55;23.30;;;18.80;99.90;;;;;;5022749;28;20115;-79
2023/06/29 04:23:15;;;;;;;32.72;22.27;;;18.80;99.90;;;;;;5039575;28;20055;-79
2023/06/29 04:25:43;;;;;;;31.00;22.45;;;18.90;99.90;;;;;;5034068;28;20493;-80
2023/06/29 04:28:11;;;;;;;33.80;23.30;;;18.90;99.90;;;;;;5033279;28;20977;-79
2023/06/29 04:30:40;;;;;;;29.95;22.58;;;18.90;99.90;;;;;;5019713;28;20048;-79
2023/06/29 04:33:09;;;;;;;35.00;22.25;;;18.90;99.90;;;;;;5031477;28;20055;-79
2023/06/29 04:35:39;;;;;;;30.60;20.95;;;19.00;99.90;;;;;;5030625;28;20598;-79
2023/06/29 04:38:06;;;;;;;30.25;21.67;;;19.00;99.90;;;;;;5049727;28;20048;-80
2023/06/29 04:40:31;;;;;;;29.92;20.27;;;19.10;99.90;;;;;;5032784;28;20116;-79
2023/06/29 04:42:57;;;;;;;31.35;20.83;;;19.20;99.90;;;;;;5032913;28;20044;-79
2023/06/29 04:45:24;;;;;;;29.92;20.48;;;19.20;99.90;;;;;;5031134;28;20056;-80
2023/06/29 04:47:50;;;;;;;29.45;21.10;;;19.40;99.90;;;;;;5030767;28;20033;-79
2023/06/29 04:50:24;;;;;;;30.92;20.73;;;19.40;99.90;;;;;;5015645;28;20094;-79
2023/06/29 04:52:58;;;;;;;30.07;20.03;;;19.60;99.90;;;;;;5020208;28;20045;-79
2023/06/29 04:55:24;;;;;;;25.88;19.00;;;19.60;99.90;;;;;;5032574;28;20055;-79
2023/06/29 04:57:50;;;;;;;29.52;19.58;;;19.70;99.90;;;;;;5035949;28;20048;-80
2023/06/29 05:00:20;;;;;;;28.67;19.02;;;19.80;99.90;;;;;;5030310;28;20133;-79
2023/06/29 05:02:45;;;;;;;26.40;18.60;;;19.80;99.90;;;;;;5021890;28;20045;-79
2023/06/29 05:05:11;;;;;;;25.95;18.17;;;19.90;99.90;;;;;;5029319;28;20041;-79
2023/06/29 05:07:37;;;;;;;30.10;18.73;;;19.80;99.90;;;;;;5022414;28;20889;-79
2023/06/29 05:10:04;;;;;;;29.50;18.40;;;19.90;99.90;;;;;;5036268;28;20078;-79
2023/06/29 05:12:29;;;;;;;28.33;18.25;;;20.00;99.90;;;;;;5024424;28;20037;-79
2023/06/29 05:14:55;;;;;;;26.88;18.77;;;20.00;99.90;;;;;;5035720;28;20063;-79
2023/06/29 05:17:20;;;;;;;25.52;17.58;;;19.90;99.90;;;;;;5019994;28;20047;-79
2023/06/29 05:19:46;;;;;;;25.45;17.88;;;20.00;99.90;;;;;;5018933;28;20040;-79
2023/06/29 05:22:12;;;;;;;25.80;17.58;;;20.10;99.90;;;;;;5031207;28;20048;-79
2023/06/29 05:24:41;;;;;;;25.73;18.65;;;20.20;99.90;;;;;;5028223;28;20179;-79
2023/06/29 05:27:07;;;;;;;25.50;18.38;;;20.20;99.90;;;;;;5048778;28;20948;-80
2023/06/29 05:29:33;;;;;;;25.95;17.35;;;20.20;99.90;;;;;;5040217;28;20032;-79
2023/06/29 05:31:58;;;;;;;25.67;18.58;;;20.20;99.90;;;;;;5025765;28;20048;-80
2023/06/29 05:34:24;;;;;;;23.02;17.50;;;20.10;99.90;;;;;;5033737;28;20147;-80
2023/06/29 05:36:49;;;;;;;26.08;17.95;;;20.30;99.90;;;;;;5037516;28;20150;-79
2023/06/29 05:39:15;;;;;;;23.25;17.35;;;20.30;99.90;;;;;;5038501;28;20039;-79
2023/06/29 05:41:43;;;;;;;22.42;17.15;;;20.40;99.90;;;;;;5039837;28;20057;-80
2023/06/29 05:44:09;;;;;;;24.27;16.83;;;20.50;99.90;;;;;;5032949;28;20119;-80
2023/06/29 05:46:35;;;;;;;26.35;16.80;;;20.50;99.90;;;;;;5038577;28;20119;-79
2023/06/29 05:49:01;;;;;;;26.10;17.98;;;20.70;99.90;;;;;;5039484;28;20135;-80
2023/06/29 05:51:27;;;;;;;22.05;17.02;;;20.80;99.90;;;;;;5025236;28;20120;-79
2023/06/29 05:53:52;;;;;;;27.75;17.45;;;20.90;99.90;;;;;;5037627;28;20117;-79
2023/06/29 05:56:18;;;;;;;23.77;16.48;;;21.00;99.90;;;;;;5027169;28;20048;-80
2023/06/29 05:58:44;;;;;;;24.30;16.73;;;21.10;99.90;;;;;;5022449;28;20052;-80
2023/06/29 06:01:10;;;;;;;25.35;16.77;;;21.20;99.90;;;;;;5025764;28;20506;-79
2023/06/29 06:03:36;;;;;;;26.00;16.75;;;21.20;99.90;;;;;;5040246;28;20075;-80
2023/06/29 06:06:02;;;;;;;24.25;17.10;;;21.20;99.90;;;;;;5025753;28;21220;-80
2023/06/29 06:08:28;;;;;;;24.42;15.90;;;21.20;99.90;;;;;;5026064;28;20166;-79
2023/06/29 06:10:53;;;;;;;30.65;16.70;;;21.10;99.90;;;;;;5034405;28;20478;-80
2023/06/29 06:13:19;;;;;;;25.73;16.48;;;21.10;99.90;;;;;;5039108;28;20036;-80
2023/06/29 06:15:45;;;;;;;23.52;15.45;;;21.10;99.90;;;;;;5037079;28;20449;-80
2023/06/29 06:18:11;;;;;;;28.70;16.70;;;21.00;99.90;;;;;;5033758;28;20078;-79
2023/06/29 06:20:36;;;;;;;23.80;16.17;;;21.00;99.90;;;;;;5024556;28;20426;-79
2023/06/29 06:23:05;;;;;;;25.23;17.15;;;21.00;99.90;;;;;;5022852;28;20388;-80
2023/06/29 06:25:31;;;;;;;27.80;17.20;;;21.00;99.90;;;;;;5038192;28;20052;-80
2023/06/29 06:27:56;;;;;;;26.35;17.80;;;21.00;99.90;;;;;;5037966;28;20040;-79
2023/06/29 06:30:23;;;;;;;23.35;15.82;;;21.00;99.90;;;;;;5028329;28;20519;-80
2023/06/29 06:32:52;;;;;;;24.73;16.27;;;21.00;99.90;;;;;;5035758;28;20407;-80
2023/06/29 06:35:18;;;;;;;27.02;17.02;;;21.00;99.90;;;;;;5024241;28;20049;-80
2023/06/29 06:37:45;;;;;;;31.88;18.48;;;21.10;99.90;;;;;;5023956;28;20407;-79
2023/06/29 06:40:11;;;;;;;31.42;17.65;;;21.10;99.90;;;;;;5030686;28;20369;-80
2023/06/29 06:42:38;;;;;;;26.73;17.40;;;21.10;99.90;;;;;;5040682;28;20472;-80
2023/06/29 06:45:05;;;;;;;27.55;17.70;;;21.30;99.90;;;;;;5020811;28;20526;-80
2023/06/29 06:47:32;;;;;;;27.88;17.20;;;21.30;99.90;;;;;;5036788;28;20112;-80
2023/06/29 06:49:59;;;;;;;21.27;16.50;;;21.40;99.90;;;;;;5037659;28;20080;-79
2023/06/29 06:52:25;;;;;;;29.52;18.02;;;21.50;99.90;;;;;;5035431;28;20038;-79
2023/06/29 06:54:51;;;;;;;23.73;17.95;;;21.50;99.90;;;;;;5039739;28;20661;-80
2023/06/29 06:57:18;;;;;;;28.85;19.00;;;21.50;99.90;;;;;;5037773;28;20398;-79
2023/06/29 06:59:43;;;;;;;29.15;18.75;;;21.40;99.90;;;;;;5017928;28;20040;-79
2023/06/29 07:02:09;;;;;;;26.90;18.35;;;21.40;99.90;;;;;;5048527;28;20053;-79
2023/06/29 07:04:35;;;;;;;26.92;18.50;;;21.50;99.90;;;;;;5032253;28;20129;-80
2023/06/29 07:07:04;;;;;;;26.77;18.27;;;21.60;99.90;;;;;;5034296;28;20186;-80
2023/06/29 07:09:30;;;;;;;26.58;17.90;;;21.50;99.90;;;;;;5033777;28;20261;-80
2023/06/29 07:11:56;;;;;;;26.15;18.45;;;21.50;99.90;;;;;;5024647;28;20171;-80
2023/06/29 07:14:21;;;;;;;30.38;19.20;;;21.60;99.90;;;;;;5063474;28;20159;-80
2023/06/29 07:16:48;;;;;;;30.65;19.35;;;21.70;99.90;;;;;;5019010;28;20123;-79
2023/06/29 07:19:17;;;;;;;28.13;19.08;;;21.50;99.90;;;;;;5049263;28;20174;-80
2023/06/29 07:21:43;;;;;;;26.77;18.80;;;21.50;99.90;;;;;;5039076;28;20136;-80
2023/06/29 07:24:09;;;;;;;25.40;17.23;;;21.50;99.90;;;;;;5034832;28;20499;-80
2023/06/29 07:26:36;;;;;;;24.90;17.15;;;21.40;99.90;;;;;;5052581;28;20044;-80
2023/06/29 07:29:04;;;;;;;25.00;17.55;;;21.40;99.90;;;;;;5063302;28;20339;-80
2023/06/29 07:31:30;;;;;;;32.13;18.83;;;21.30;99.90;;;;;;5036029;28;20047;-80
2023/06/29 07:33:56;;;;;;;29.00;18.08;;;21.40;99.90;;;;;;5032536;28;20557;-80
2023/06/29 07:36:26;;;;;;;28.80;17.30;;;21.40;99.90;;;;;;5022997;28;20164;-80
2023/06/29 07:38:52;;;;;;;26.58;18.55;;;21.30;99.90;;;;;;5045828;28;20468;-81
2023/06/29 07:41:19;;;;;;;24.58;18.23;;;21.20;99.90;;;;;;5037206;28;20053;-81
2023/06/29 07:43:54;;;;;;;29.85;18.48;;;21.30;99.90;;;;;;5031622;28;20059;-81
2023/06/29 07:46:19;;;;;;;28.38;18.23;;;21.30;99.90;;;;;;5030267;28;20118;-81
2023/06/29 07:48:50;;;;;;;26.00;17.35;;;21.20;99.90;;;;;;5028860;28;21270;-80
2023/06/29 07:51:16;;;;;;;26.55;18.30;;;21.20;99.90;;;;;;5032521;28;20123;-81
2023/06/29 07:53:45;;;;;;;28.20;19.20;;;21.20;99.90;;;;;;5032198;28;20047;-81
2023/06/29 07:56:10;;;;;;;26.23;17.92;;;21.10;99.90;;;;;;5032844;28;20040;-81
2023/06/29 07:58:36;;;;;;;26.95;17.83;;;21.10;99.90;;;;;;5027655;28;20037;-81
2023/06/29 08:01:02;;;;;;;26.33;17.60;;;21.20;99.90;;;;;;5031137;28;20649;-81
2023/06/29 08:03:28;;;;;;;25.33;17.65;;;21.40;99.90;;;;;;5032211;28;20116;-81
2023/06/29 08:05:54;;;;;;;26.08;18.55;;;21.50;99.90;;;;;;5051488;28;20130;-80
2023/06/29 08:08:23;;;;;;;26.38;18.70;;;21.60;99.90;;;;;;5031306;28;20041;-80
2023/06/29 08:10:49;;;;;;;27.70;18.60;;;21.80;99.90;;;;;;5027841;28;20697;-80
2023/06/29 08:13:15;;;;;;;29.08;19.42;;;22.00;99.90;;;;;;5021500;28;20049;-80
2023/06/29 08:15:41;;;;;;;31.88;19.55;;;22.10;99.90;;;;;;5026952;28;20180;-80
2023/06/29 08:18:07;;;;;;;27.05;19.05;;;22.30;99.90;;;;;;5017378;28;20136;-80
2023/06/29 08:20:32;;;;;;;31.83;19.38;;;22.30;99.90;;;;;;5034633;28;20076;-80
2023/06/29 08:22:58;;;;;;;25.98;18.67;;;22.60;99.90;;;;;;5016421;28;20044;-80
2023/06/29 08:25:24;;;;;;;29.13;17.95;;;22.70;99.90;;;;;;5009365;28;20048;-80
2023/06/29 08:27:50;;;;;;;28.08;18.08;;;22.80;99.90;;;;;;5028920;28;20116;-80
2023/06/29 08:30:16;;;;;;;25.00;16.73;;;22.80;99.90;;;;;;5026642;28;20041;-80
2023/06/29 08:32:43;;;;;;;26.00;18.63;;;22.90;99.90;;;;;;5058234;28;20049;-80
2023/06/29 08:35:09;;;;;;;25.23;18.17;;;22.90;99.90;;;;;;5031150;28;20064;-80
2023/06/29 08:37:35;;;;;;;25.60;18.02;;;23.00;99.90;;;;;;5017520;28;20044;-79
2023/06/29 08:40:03;;;;;;;26.20;18.13;;;23.30;99.90;;;;;;5032523;28;20048;-80
2023/06/29 08:42:29;;;;;;;25.67;16.75;;;23.50;99.90;;;;;;5032890;28;20419;-80
2023/06/29 08:44:55;;;;;;;27.05;17.70;;;23.40;99.90;;;;;;5026571;28;20059;-80
2023/06/29 08:47:23;;;;;;;27.73;18.17;;;23.60;99.90;;;;;;5008966;28;20041;-80
2023/06/29 08:49:51;;;;;;;24.83;17.58;;;23.70;99.90;;;;;;5028114;28;20292;-80
2023/06/29 08:52:20;;;;;;;24.77;17.55;;;23.80;99.90;;;;;;5032049;28;20136;-80
2023/06/29 08:54:47;;;;;;;27.48;18.40;;;23.60;99.90;;;;;;5024356;28;20052;-80
2023/06/29 08:57:13;;;;;;;25.67;17.38;;;23.30;99.90;;;;;;5034583;28;20249;-80
2023/06/29 08:59:39;;;;;;;23.70;18.40;;;23.60;99.90;;;;;;5026755;28;20045;-80
2023/06/29 09:02:10;;;;;;;29.33;18.20;;;23.30;99.90;;;;;;5016034;28;20099;-80
2023/06/29 09:04:36;;;;;;;26.08;19.08;;;23.40;99.90;;;;;;5029373;28;20045;-80
2023/06/29 09:07:05;;;;;;;28.17;19.95;;;23.50;99.90;;;;;;5033757;28;20045;-80
2023/06/29 09:09:30;;;;;;;28.92;21.10;;;23.50;99.90;;;;;;5050698;28;20365;-80
2023/06/29 09:11:56;;;;;;;30.42;20.60;;;23.40;99.90;;;;;;5017155;28;20051;-80
2023/06/29 09:14:23;;;;;;;31.00;20.90;;;23.20;99.90;;;;;;5013896;28;20044;-79
2023/06/29 09:16:53;;;;;;;30.35;21.52;;;23.30;99.90;;;;;;5034661;28;20048;-80
2023/06/29 09:19:21;;;;;;;29.45;21.20;;;23.50;99.90;;;;;;5014681;28;20096;-80
2023/06/29 09:21:48;;;;;;;30.88;22.20;;;23.50;99.90;;;;;;5011973;28;20738;-80
2023/06/29 09:24:14;;;;;;;28.85;20.05;;;23.30;99.90;;;;;;5029705;28;20044;-80
2023/06/29 09:26:40;;;;;;;32.60;21.42;;;23.50;99.90;;;;;;5032296;28;20428;-80
2023/06/29 09:29:06;;;;;;;31.23;21.45;;;23.60;99.90;;;;;;5028825;28;20122;-80
2023/06/29 09:31:35;;;;;;;28.52;19.77;;;23.70;99.90;;;;;;5028812;28;20049;-80
2023/06/29 09:34:21;;;;;;;30.20;20.13;;;23.70;99.90;;;;;;5028724;28;20046;-80
2023/06/29 09:36:48;;;;;;;28.05;20.92;;;23.60;99.90;;;;;;5030485;28;20080;-80
2023/06/29 09:39:15;;;;;;;30.70;21.42;;;23.60;99.90;;;;;;5013879;28;20178;-80
2023/06/29 09:41:47;;;;;;;31.67;21.90;;;23.80;99.90;;;;;;5028524;28;20053;-80
2023/06/29 09:44:16;;;;;;;26.60;20.08;;;24.10;99.90;;;;;;5030533;28;20484;-80
2023/06/29 09:46:42;;;;;;;27.33;20.45;;;24.20;99.90;;;;;;5031890;28;20365;-80
2023/06/29 09:49:08;;;;;;;30.02;21.63;;;24.10;99.90;;;;;;5009278;28;20068;-80
2023/06/29 09:51:35;;;;;;;30.70;21.88;;;23.90;99.90;;;;;;5026997;28;20235;-80
2023/06/29 09:54:03;;;;;;;34.13;21.92;;;24.00;99.90;;;;;;5015615;28;20433;-80
2023/06/29 09:56:36;;;;;;;29.98;22.00;;;23.80;99.90;;;;;;5032004;28;20068;-80
2023/06/29 09:59:02;;;;;;;29.83;21.90;;;24.10;99.90;;;;;;5029311;28;20100;-80
2023/06/29 10:01:30;;;;;;;29.35;21.40;;;24.10;99.90;;;;;;5033191;28;20036;-80
2023/06/29 10:03:57;;;;;;;29.83;21.60;;;24.00;99.90;;;;;;5030284;28;20063;-80
2023/06/29 10:06:31;;;;;;;30.55;21.25;;;24.00;99.90;;;;;;5027270;28;20041;-80
2023/06/29 10:08:59;;;;;;;31.45;22.15;;;24.00;99.90;;;;;;5013786;28;20141;-80
2023/06/29 10:11:30;;;;;;;29.85;22.08;;;24.10;99.90;;;;;;5042348;28;20167;-80
2023/06/29 10:14:00;;;;;;;28.55;21.80;;;23.90;99.90;;;;;;5030778;28;20041;-80
2023/06/29 10:16:28;;;;;;;29.77;22.20;;;23.70;99.90;;;;;;5031488;28;20699;-80
2023/06/29 10:19:05;;;;;;;31.52;21.90;;;23.40;99.90;;;;;;5045173;28;20041;-80
2023/06/29 10:21:32;;;;;;;32.40;22.33;;;23.20;99.90;;;;;;5034536;28;20033;-80
2023/06/29 10:23:59;;;;;;;28.40;20.85;;;23.00;99.90;;;;;;5036179;28;20128;-80
2023/06/29 10:26:25;;;;;;;30.40;21.50;;;22.80;99.90;;;;;;5036598;28;20476;-80
2023/06/29 10:28:51;;;;;;;29.70;21.88;;;22.80;99.90;;;;;;5030220;28;20052;-80
2023/06/29 10:31:19;;;;;;;28.45;20.70;;;22.60;99.90;;;;;;5015899;28;20404;-80
2023/06/29 10:33:48;;;;;;;29.42;21.83;;;22.60;99.90;;;;;;5034454;28;20041;-80
2023/06/29 10:36:16;;;;;;;32.97;21.08;;;22.50;99.90;;;;;;5029820;28;20622;-80
2023/06/29 10:38:42;;;;;;;30.70;22.00;;;22.50;99.90;;;;;;5013986;28;20297;-80
2023/06/29 10:41:29;;;;;;;29.90;21.95;;;22.40;99.90;;;;;;5011439;28;20061;-80
2023/06/29 10:43:58;;;;;;;28.60;21.33;;;22.50;99.90;;;;;;5030394;28;20045;-80
2023/06/29 10:46:46;;;;;;;30.25;21.48;;;22.60;99.90;;;;;;5018969;28;20282;-80
2023/06/29 10:49:30;;;;;;;30.05;21.48;;;22.60;99.90;;;;;;5013130;28;20029;-80
2023/06/29 10:52:02;;;;;;;32.55;22.50;;;22.80;99.90;;;;;;5021100;28;20598;-80
2023/06/29 10:54:28;;;;;;;30.30;22.55;;;23.10;99.90;;;;;;5020109;28;20097;-80
2023/06/29 10:57:07;;;;;;;30.75;22.95;;;23.00;99.90;;;;;;5032469;28;20064;-80
2023/06/29 10:59:36;;;;;;;32.55;23.33;;;23.30;99.90;;;;;;5029659;28;20044;-80
2023/06/29 11:02:03;;;;;;;34.67;23.77;;;23.80;99.90;;;;;;5030468;28;20049;-80
2023/06/29 11:04:29;;;;;;;33.15;23.58;;;24.20;99.90;;;;;;5029945;28;20048;-80
2023/06/29 11:06:55;;;;;;;32.30;22.20;;;24.40;99.90;;;;;;5033008;28;20364;-80
2023/06/29 11:09:20;;;;;;;32.22;24.08;;;24.50;99.90;;;;;;5031043;28;20045;-80
2023/06/29 11:11:48;;;;;;;32.28;23.52;;;24.40;99.90;;;;;;5032502;28;20038;-80
2023/06/29 11:14:14;;;;;;;33.22;23.13;;;24.20;99.90;;;;;;5012883;28;20098;-80
2023/06/29 11:16:40;;;;;;;27.05;21.88;;;24.10;99.90;;;;;;5030262;28;20456;-81
2023/06/29 11:19:06;;;;;;;29.23;22.45;;;23.80;99.90;;;;;;5016498;28;20098;-80
2023/06/29 11:21:32;;;;;;;29.48;22.35;;;24.10;99.90;;;;;;5028969;28;20337;-80
2023/06/29 11:23:58;;;;;;;31.33;22.95;;;24.70;99.90;;;;;;5032277;28;20052;-80
2023/06/29 11:26:26;;;;;;;28.45;20.98;;;24.90;99.90;;;;;;5016517;28;20175;-80
2023/06/29 11:28:53;;;;;;;28.08;20.77;;;24.90;99.90;;;;;;5031187;28;20049;-80
2023/06/29 11:31:24;;;;;;;26.27;20.73;;;25.00;99.90;;;;;;5015591;28;20082;-80
2023/06/29 11:33:51;;;;;;;26.38;19.38;;;24.70;99.90;;;;;;5049403;28;20234;-80
2023/06/29 11:36:33;;;;;;;25.58;19.48;;;24.70;99.90;;;;;;5015079;28;20129;-79
2023/06/29 11:39:07;;;;;;;25.10;19.85;;;24.60;99.90;;;;;;5029967;28;20053;-80
2023/06/29 11:41:33;;;;;;;28.27;19.63;;;24.30;99.90;;;;;;5028333;28;20061;-80
2023/06/29 11:44:00;;;;;;;29.75;20.88;;;24.10;99.90;;;;;;5018394;28;20605;-80
2023/06/29 11:46:26;;;;;;;26.67;20.17;;;23.90;99.90;;;;;;5032063;28;20159;-80
2023/06/29 11:48:56;;;;;;;28.52;21.15;;;24.00;99.90;;;;;;5013420;28;20528;-80
2023/06/29 11:51:26;;;;;;;24.83;19.38;;;24.20;99.90;;;;;;5016943;28;20201;-80
2023/06/29 11:53:56;;;;;;;25.55;20.05;;;24.40;99.90;;;;;;5014061;28;20312;-80
2023/06/29 11:56:35;;;;;;;26.65;21.02;;;24.50;99.90;;;;;;5061952;28;20037;-80
2023/06/29 11:59:18;;;;;;;30.50;20.38;;;24.40;99.90;;;;;;5017206;28;20705;-80
2023/06/29 12:01:47;;;;;;;28.27;20.48;;;24.20;99.90;;;;;;5028993;28;20512;-80
2023/06/29 12:04:13;;;;;;;25.83;20.33;;;24.00;99.90;;;;;;5017834;28;20048;-80
2023/06/29 12:06:53;;;;;;;29.13;21.40;;;23.80;99.90;;;;;;5031199;28;20033;-80
2023/06/29 12:09:18;;;;;;;30.48;20.92;;;23.90;99.90;;;;;;5030667;28;20037;-80
2023/06/29 12:11:44;;;;;;;29.42;21.38;;;23.90;99.90;;;;;;5010815;28;20104;-80
2023/06/29 12:14:10;;;;;;;28.58;20.85;;;24.30;99.90;;;;;;5029035;28;20067;-80
2023/06/29 12:16:43;;;;;;;29.05;21.27;;;24.40;99.90;;;;;;5013797;28;20040;-80
2023/06/29 12:19:12;;;;;;;28.80;21.35;;;25.00;99.90;;;;;;5011143;28;20118;-80
2023/06/29 12:21:38;;;;;;;30.08;20.88;;;25.20;99.90;;;;;;5028807;28;20300;-80
2023/06/29 12:24:04;;;;;;;31.00;21.95;;;25.30;99.90;;;;;;5027405;28;20028;-80
2023/06/29 12:26:31;;;;;;;29.35;22.23;;;26.60;99.90;;;;;;5016312;28;20433;-80
2023/06/29 12:28:57;;;;;;;28.08;21.90;;;27.00;99.90;;;;;;5010640;28;20682;-80